Portada
METAR-TAF:

METAR-TAF

Aeroports :

Moscou, Rússia

latitud: 55-30-42N, longitud: 037-30-26E, altitud: 173 m

Observació

L'informe es va fer fa 33 minuts, a les 08:30 UTC
Vent 6 kt del Sud, variant entre Sud-Est i Sud-Oest
Temperatura 20°C
Humitat 64%
Pressió 1013 hPa
Visibilitat 10 km o més
Cel ennuvolat a una alçada de 3300 ft

METAR: UUMO 060830Z 18003MPS 140V220 9999 BKN033 20/13 Q1013 R26/090060 NOSIG RMK QFE744/0992

Hora: 12:03 (09:03 UTC)

Pronòstic

L'informe es va fer fa 1 hora i 3 minuts, a les 08:00 UTC
Pronòstic vàlid del 06 a les 09 UTC al 06 a les 18 UTC
Vent 6 kt del Sud
Visibilitat 10 km o més
Núvols disperses a una alçada de 2000 ft
Temporalment
l' 06 a les 15 UTC al 06 a les 18 UTC
Vent 17 kt del Sud/Sud-Oest amb ràfegues de 27 kt
Visibilitat: 3100 m
Núvols disperses a una alçada de 500 ft
Cel ennuvolat a una alçada de 2000 ft, Cumulonimbus.
tempesta, pluja

TAF: UUMO 060800Z 0609/0618 18003MPS 9999 SCT020 TEMPO 0615/0618 20009G14MPS 3100 -TSRA SCT005 BKN020CB

Observacions i pronòstics meteorològics de més de 4000 aeroports (METAR i TAF).

Les estacions disponibles són els punts grocs i vermells al mapa.

Posi el ratolí al punt desitjat per veure el nom de l'estació.

Feu clic per veure les observacions i els pronòstics meteorològics.

Per canviar el mapa: feu clic els botons verds amb una creu de color negre per apropar; al botó verd amb un guió per allunyar la imatge; o en les fletxes verdes per a mapes adjacents.


METAR-TAF: